createdAt,value
2022-09-05T00:00:22.204Z,10.50
2022-09-05T00:03:01.693Z,10.50
2022-09-05T00:05:57.588Z,10.50
2022-09-05T00:08:46.777Z,10.50
2022-09-05T00:11:42.066Z,10.50
2022-09-05T00:15:14.361Z,10.70
2022-09-05T00:18:48.402Z,10.80
2022-09-05T00:24:25.188Z,10.90
2022-09-05T00:24:26.078Z,10.90
2022-09-05T00:26:50.091Z,11.00
2022-09-05T00:31:22.984Z,11.10
2022-09-05T00:33:17.187Z,10.90
2022-09-05T00:36:05.403Z,10.80
2022-09-05T00:39:15.545Z,10.70
2022-09-05T00:41:48.449Z,10.70
2022-09-05T00:44:19.583Z,10.50
2022-09-05T00:47:03.642Z,10.40
2022-09-05T00:49:41.144Z,10.40
2022-09-05T00:52:18.711Z,10.30
2022-09-05T00:55:17.475Z,10.20
2022-09-05T00:58:09.141Z,10.10
2022-09-05T01:00:51.229Z,10.10
2022-09-05T01:03:36.347Z,10.00
2022-09-05T01:06:23.731Z,10.00
2022-09-05T01:09:10.088Z,9.90
2022-09-05T01:11:59.558Z,9.90
2022-09-05T01:14:47.891Z,9.80
2022-09-05T01:17:27.847Z,9.80
2022-09-05T01:20:19.259Z,9.80
2022-09-05T01:23:18.028Z,9.70
2022-09-05T01:26:34.382Z,9.70
2022-09-05T01:29:44.322Z,9.70
2022-09-05T01:32:16.015Z,9.60
2022-09-05T01:35:02.420Z,9.50
2022-09-05T01:38:00.826Z,9.50
2022-09-05T01:41:18.791Z,9.50
2022-09-05T01:44:27.847Z,9.50
2022-09-05T01:47:40.233Z,9.40
2022-09-05T01:50:48.693Z,9.40
2022-09-05T01:53:29.939Z,9.40
2022-09-05T01:56:21.835Z,9.30
2022-09-05T01:58:53.915Z,9.30
2022-09-05T02:01:56.840Z,9.30
2022-09-05T02:04:56.406Z,9.30
2022-09-05T02:07:45.376Z,9.30
2022-09-05T02:10:38.018Z,9.30
2022-09-05T02:13:36.535Z,9.30
2022-09-05T02:16:35.410Z,9.30
2022-09-05T02:19:09.954Z,9.40
2022-09-05T02:21:56.153Z,9.30
2022-09-05T02:24:38.974Z,9.30
2022-09-05T02:27:48.915Z,9.30
2022-09-05T02:30:15.039Z,9.30
2022-09-05T02:32:57.305Z,9.30
2022-09-05T02:35:48.326Z,9.30
2022-09-05T02:44:09.405Z,9.30
2022-09-05T02:45:09.522Z,9.40
2022-09-05T02:45:28.445Z,9.40
2022-09-05T02:48:19.994Z,9.40
2022-09-05T02:57:28.215Z,9.50
2022-09-05T02:57:35.920Z,9.50
2022-09-05T02:57:44.349Z,9.40
2022-09-05T03:00:16.168Z,9.40
2022-09-05T03:02:43.733Z,9.30
2022-09-05T03:05:36.163Z,9.40
2022-09-05T03:08:17.964Z,9.30
2022-09-05T03:11:39.548Z,9.30
2022-09-05T03:14:12.866Z,9.30
2022-09-05T03:17:06.913Z,9.30
2022-09-05T03:19:58.929Z,9.20
2022-09-05T03:22:38.813Z,9.20
2022-09-05T03:25:28.516Z,9.20
2022-09-05T03:28:18.192Z,9.10
2022-09-05T03:30:48.688Z,9.20
2022-09-05T03:33:49.558Z,9.20
2022-09-05T03:36:43.381Z,9.30
2022-09-05T03:39:33.658Z,9.30
2022-09-05T03:42:20.050Z,9.40
2022-09-05T03:45:00.169Z,9.50
2022-09-05T03:48:03.616Z,9.60
2022-09-05T03:57:10.813Z,10.00
2022-09-05T03:57:12.688Z,9.80
2022-09-05T03:57:38.746Z,10.10
2022-09-05T04:00:27.061Z,10.30
2022-09-05T04:08:15.309Z,10.40
2022-09-05T04:08:20.966Z,10.50
2022-09-05T04:09:53.491Z,10.60
2022-09-05T04:12:33.333Z,10.80
2022-09-05T04:15:26.178Z,10.90
2022-09-05T04:18:03.704Z,11.10
2022-09-05T04:20:58.105Z,11.30
2022-09-05T04:24:10.659Z,11.30
2022-09-05T04:27:10.885Z,11.70
2022-09-05T04:30:14.706Z,11.60
2022-09-05T04:33:36.664Z,11.70
2022-09-05T04:36:42.756Z,11.80
2022-09-05T04:39:24.590Z,12.00
2022-09-05T04:41:54.870Z,12.20
2022-09-05T04:44:35.613Z,12.20
2022-09-05T04:47:30.875Z,12.50
2022-09-05T04:50:24.334Z,12.50
2022-09-05T04:53:10.907Z,12.70
2022-09-05T04:55:55.209Z,12.80
2022-09-05T05:00:36.792Z,13.00
2022-09-05T05:06:13.501Z,13.10
2022-09-05T05:06:15.944Z,13.30
2022-09-05T05:07:57.775Z,13.50
2022-09-05T05:11:59.117Z,13.60
2022-09-05T05:17:54.057Z,13.70
2022-09-05T05:20:41.281Z,13.40
2022-09-05T05:26:05.682Z,12.90
2022-09-05T05:28:51.768Z,12.70
2022-09-05T05:31:45.238Z,12.60
2022-09-05T05:34:42.186Z,12.40
2022-09-05T05:37:19.038Z,12.40
2022-09-05T05:40:06.883Z,12.30
2022-09-05T05:43:28.589Z,12.20
2022-09-05T05:46:03.057Z,12.20
2022-09-05T05:48:57.341Z,12.30
2022-09-05T05:55:50.764Z,12.80
2022-09-05T05:59:01.039Z,13.70
2022-09-05T06:05:22.672Z,16.10
2022-09-05T06:12:24.684Z,17.00
2022-09-05T06:15:05.297Z,18.60
2022-09-05T06:15:23.257Z,20.40
2022-09-05T06:18:20.608Z,22.60
2022-09-05T06:22:11.032Z,24.10
2022-09-05T06:25:31.493Z,25.10
2022-09-05T06:28:29.284Z,26.20
2022-09-05T06:35:10.160Z,27.60
2022-09-05T06:38:18.181Z,28.30
2022-09-05T06:41:32.079Z,27.80
2022-09-05T06:44:13.908Z,27.30
2022-09-05T06:47:33.283Z,26.70
2022-09-05T06:50:27.832Z,26.00
2022-09-05T06:57:19.369Z,27.10
2022-09-05T07:00:21.785Z,28.20
2022-09-05T07:07:45.939Z,29.10
2022-09-05T07:10:44.192Z,29.70
2022-09-05T07:13:34.692Z,29.40
2022-09-05T07:16:38.142Z,28.30
2022-09-05T07:19:41.168Z,26.80
2022-09-05T07:22:47.011Z,25.50
2022-09-05T07:25:37.423Z,24.50
2022-09-05T07:28:28.109Z,23.60
2022-09-05T07:31:37.289Z,23.10
2022-09-05T07:34:59.638Z,23.10
2022-09-05T07:37:45.835Z,23.00
2022-09-05T07:40:26.995Z,22.40
2022-09-05T07:43:22.103Z,22.00
2022-09-05T07:46:19.572Z,21.80
2022-09-05T07:49:09.683Z,22.00
2022-09-05T07:56:53.092Z,22.50
2022-09-05T07:57:08.253Z,23.00
2022-09-05T07:57:51.735Z,23.90
2022-09-05T08:00:29.798Z,25.10
2022-09-05T08:03:15.713Z,25.40
2022-09-05T08:06:03.170Z,25.20
2022-09-05T08:09:57.158Z,24.80
2022-09-05T08:12:16.114Z,24.00
2022-09-05T08:15:10.174Z,22.90
2022-09-05T08:18:01.072Z,22.10
2022-09-05T08:20:40.603Z,21.60
2022-09-05T08:23:32.123Z,21.60
2022-09-05T08:26:44.140Z,21.80
2022-09-05T08:29:41.679Z,22.00
2022-09-05T08:33:11.930Z,22.40
2022-09-05T08:36:32.357Z,22.40
2022-09-05T08:39:20.116Z,22.00
2022-09-05T08:42:52.766Z,21.90
2022-09-05T08:46:37.064Z,22.10
2022-09-05T08:49:32.250Z,22.50
2022-09-05T08:52:11.454Z,23.10
2022-09-05T08:55:19.667Z,24.50
2022-09-05T08:57:51.137Z,26.50
2022-09-05T09:00:24.734Z,28.40
2022-09-05T09:03:36.416Z,29.50
2022-09-05T09:06:30.619Z,30.70
2022-09-05T09:09:20.756Z,31.50
2022-09-05T09:12:20.216Z,32.20
2022-09-05T09:15:34.032Z,32.30
2022-09-05T09:18:42.045Z,32.60
2022-09-05T09:22:03.618Z,33.10
2022-09-05T09:24:37.779Z,33.90
2022-09-05T09:28:47.550Z,34.60
2022-09-05T09:30:33.974Z,35.20
2022-09-05T09:33:13.502Z,35.20
2022-09-05T09:35:51.925Z,35.10
2022-09-05T09:38:42.517Z,34.40
2022-09-05T09:41:49.922Z,32.70
2022-09-05T09:44:36.342Z,30.60
2022-09-05T09:47:14.436Z,29.60
2022-09-05T09:50:12.206Z,29.00
2022-09-05T09:53:37.682Z,28.20
2022-09-05T09:56:26.925Z,27.10
2022-09-05T09:59:25.927Z,25.70
2022-09-05T10:05:53.657Z,25.00
2022-09-05T10:10:44.488Z,24.10
2022-09-05T10:10:53.066Z,23.90
2022-09-05T10:13:39.158Z,24.20
2022-09-05T10:16:39.870Z,24.10
2022-09-05T10:23:09.367Z,23.50
2022-09-05T10:26:05.623Z,22.70
2022-09-05T10:28:40.315Z,22.50
2022-09-05T10:33:24.267Z,22.60
2022-09-05T10:37:20.503Z,23.20
2022-09-05T10:39:58.216Z,23.00
2022-09-05T10:43:11.492Z,22.80
2022-09-05T10:46:14.664Z,22.50
2022-09-05T10:48:58.324Z,22.10
2022-09-05T10:51:37.844Z,21.90
2022-09-05T10:54:30.952Z,21.80
2022-09-05T11:02:23.201Z,21.50
2022-09-05T11:04:09.946Z,21.10
2022-09-05T11:07:05.447Z,20.30
2022-09-05T11:13:46.846Z,19.50
2022-09-05T11:17:30.687Z,19.10
2022-09-05T11:21:03.626Z,19.00
2022-09-05T11:28:10.175Z,18.70
2022-09-05T11:39:51.198Z,18.20
2022-09-05T11:42:54.187Z,18.40
2022-09-05T11:45:31.275Z,18.40
2022-09-05T11:48:53.066Z,18.30
2022-09-05T11:52:06.937Z,18.30
2022-09-05T11:55:46.646Z,18.50
2022-09-05T11:58:44.775Z,18.60
2022-09-05T12:01:41.932Z,18.70
2022-09-05T12:08:26.262Z,18.50
2022-09-05T12:17:47.029Z,17.90
2022-09-05T12:20:47.266Z,17.60
2022-09-05T12:25:15.358Z,17.60
2022-09-05T12:27:41.629Z,17.50
2022-09-05T12:35:59.498Z,17.70
2022-09-05T12:40:54.275Z,18.00
2022-09-05T12:44:38.534Z,18.40
2022-09-05T12:47:16.687Z,18.40
2022-09-05T12:50:40.798Z,18.20
2022-09-05T12:53:50.932Z,18.20
2022-09-05T12:58:18.548Z,18.10
2022-09-05T13:03:02.255Z,18.00
2022-09-05T13:03:12.395Z,18.30
2022-09-05T13:05:26.974Z,18.60
2022-09-05T13:08:17.573Z,18.90
2022-09-05T13:14:52.851Z,19.00
2022-09-05T13:15:02.507Z,19.00
2022-09-05T13:17:26.605Z,19.20
2022-09-05T13:20:58.428Z,19.30
2022-09-05T13:23:54.278Z,19.10
2022-09-05T13:26:55.966Z,18.70
2022-09-05T13:31:30.357Z,18.40
2022-09-05T13:38:13.926Z,18.00
2022-09-05T13:38:28.908Z,18.00
2022-09-05T13:40:50.916Z,18.10
2022-09-05T13:43:39.385Z,18.00
2022-09-05T13:46:39.163Z,17.80
2022-09-05T13:49:37.341Z,17.70
2022-09-05T13:52:31.081Z,17.70
2022-09-05T13:55:23.582Z,17.60
2022-09-05T13:58:10.593Z,17.70
2022-09-05T14:00:43.597Z,17.60
2022-09-05T14:03:36.163Z,17.50
2022-09-05T14:10:23.302Z,17.30
2022-09-05T14:13:08.949Z,17.40
2022-09-05T14:16:02.647Z,17.40
2022-09-05T14:19:12.971Z,17.30
2022-09-05T14:21:52.818Z,17.30
2022-09-05T14:24:27.608Z,17.30
2022-09-05T14:27:18.102Z,17.40
2022-09-05T14:30:18.090Z,17.50
2022-09-05T14:37:36.857Z,17.50
2022-09-05T14:37:49.873Z,17.40
2022-09-05T14:39:23.236Z,17.10
2022-09-05T14:42:24.503Z,17.00
2022-09-05T14:45:30.963Z,17.00
2022-09-05T14:48:43.938Z,17.00
2022-09-05T14:51:29.154Z,16.90
2022-09-05T15:02:39.719Z,17.00
2022-09-05T15:02:53.199Z,16.90
2022-09-05T15:06:33.911Z,16.80
2022-09-05T15:12:18.206Z,16.70
2022-09-05T15:12:33.208Z,16.60
2022-09-05T15:15:21.516Z,16.50
2022-09-05T15:18:08.728Z,16.40
2022-09-05T15:20:59.728Z,16.40
2022-09-05T15:23:27.823Z,16.40
2022-09-05T15:26:18.330Z,16.40
2022-09-05T15:29:13.967Z,16.30
2022-09-05T15:32:09.769Z,16.20
2022-09-05T15:34:41.896Z,16.20
2022-09-05T15:37:42.680Z,16.10
2022-09-05T15:40:23.346Z,16.00
2022-09-05T15:42:56.109Z,16.00
2022-09-05T15:45:40.487Z,15.90
2022-09-05T15:48:26.173Z,15.90
2022-09-05T15:50:58.445Z,15.90
2022-09-05T15:53:38.879Z,15.90
2022-09-05T15:56:14.278Z,15.90
2022-09-05T15:58:56.795Z,15.70
2022-09-05T16:01:59.306Z,15.70
2022-09-05T16:10:35.846Z,15.60
2022-09-05T16:10:46.157Z,15.60
2022-09-05T16:10:57.769Z,15.40
2022-09-05T16:13:51.368Z,15.30
2022-09-05T16:23:17.545Z,15.30
2022-09-05T16:23:24.110Z,15.20
2022-09-05T16:23:25.847Z,15.10
2022-09-05T16:25:31.485Z,15.20
2022-09-05T16:28:32.105Z,15.10
2022-09-05T16:31:20.240Z,15.20
2022-09-05T16:34:12.124Z,15.20
2022-09-05T16:37:08.481Z,15.30
2022-09-05T16:39:47.455Z,15.30
2022-09-05T16:42:46.681Z,15.20
2022-09-05T16:45:15.827Z,15.20
2022-09-05T16:48:05.979Z,15.20
2022-09-05T16:51:16.007Z,15.30
2022-09-05T16:54:01.857Z,15.30
2022-09-05T16:57:05.090Z,15.20
2022-09-05T16:59:35.868Z,15.10
2022-09-05T17:02:22.317Z,15.20
2022-09-05T17:05:04.663Z,15.20
2022-09-05T17:08:02.156Z,15.10
2022-09-05T17:10:50.699Z,15.10
2022-09-05T17:13:34.896Z,15.10
2022-09-05T17:16:09.672Z,15.00
2022-09-05T17:18:43.840Z,14.90
2022-09-05T17:21:41.833Z,15.00
2022-09-05T17:29:16.677Z,15.10
2022-09-05T17:29:31.430Z,15.00
2022-09-05T17:31:44.523Z,15.00
2022-09-05T17:33:13.483Z,14.90
2022-09-05T17:36:09.595Z,14.90
2022-09-05T17:38:51.381Z,15.00
2022-09-05T17:41:56.679Z,15.00
2022-09-05T17:44:29.555Z,15.00
2022-09-05T17:47:27.477Z,15.00
2022-09-05T17:50:33.546Z,15.00
2022-09-05T17:53:26.002Z,15.00
2022-09-05T17:55:55.560Z,15.00
2022-09-05T17:58:48.961Z,15.00
2022-09-05T18:01:26.856Z,14.90
2022-09-05T18:04:16.209Z,14.90
2022-09-05T18:06:52.820Z,14.80
2022-09-05T18:09:48.010Z,14.80
2022-09-05T18:13:13.869Z,14.70
2022-09-05T18:15:34.322Z,14.70
2022-09-05T18:18:04.110Z,14.60
2022-09-05T18:20:44.158Z,14.50
2022-09-05T18:23:39.675Z,14.50
2022-09-05T18:26:21.109Z,14.40
2022-09-05T18:29:14.447Z,14.30
2022-09-05T18:31:45.437Z,14.30
2022-09-05T18:34:19.354Z,14.20
2022-09-05T18:37:01.103Z,14.20
2022-09-05T18:39:37.252Z,14.20
2022-09-05T18:42:26.497Z,14.30
2022-09-05T18:45:00.418Z,14.20
2022-09-05T18:47:53.315Z,14.20
2022-09-05T18:50:33.841Z,14.20
2022-09-05T18:53:10.698Z,14.20
2022-09-05T18:56:12.182Z,14.20
2022-09-05T18:59:09.905Z,14.20
2022-09-05T19:01:55.644Z,14.20
2022-09-05T19:04:39.035Z,14.30
2022-09-05T19:07:23.172Z,14.30
2022-09-05T19:10:34.456Z,14.40
2022-09-05T19:13:20.996Z,14.30
2022-09-05T19:16:42.803Z,14.30
2022-09-05T19:19:28.754Z,14.30
2022-09-05T19:23:08.393Z,14.40
2022-09-05T19:24:53.399Z,14.40
2022-09-05T19:30:22.687Z,14.40
2022-09-05T19:36:59.598Z,14.40
2022-09-05T19:37:12.705Z,14.40
2022-09-05T19:37:29.553Z,14.40
2022-09-05T19:45:54.286Z,14.30
2022-09-05T19:47:29.028Z,14.20
2022-09-05T19:47:38.380Z,14.20
2022-09-05T19:48:34.906Z,14.10
2022-09-05T19:51:31.339Z,14.10
2022-09-05T19:54:03.781Z,13.90
2022-09-05T19:56:52.424Z,13.80
2022-09-05T19:59:35.588Z,13.80
2022-09-05T20:02:05.695Z,13.70
2022-09-05T20:04:39.606Z,13.70
2022-09-05T20:07:16.846Z,13.70
2022-09-05T20:09:47.239Z,13.70
2022-09-05T20:12:28.329Z,13.70
2022-09-05T20:14:57.326Z,13.80
2022-09-05T20:17:29.784Z,13.80
2022-09-05T20:20:10.144Z,13.60
2022-09-05T20:22:50.769Z,13.70
2022-09-05T20:25:47.441Z,13.70
2022-09-05T20:28:24.966Z,13.80
2022-09-05T20:31:04.885Z,13.80
2022-09-05T20:33:42.836Z,13.80
2022-09-05T20:43:07.949Z,13.90
2022-09-05T20:43:23.647Z,13.90
2022-09-05T20:43:29.713Z,13.90
2022-09-05T20:44:50.754Z,13.90
2022-09-05T20:54:04.329Z,13.80
2022-09-05T20:54:16.969Z,13.80
2022-09-05T20:54:21.353Z,13.80
2022-09-05T20:56:24.002Z,13.80
2022-09-05T20:58:55.778Z,13.80
2022-09-05T21:01:37.548Z,13.80
2022-09-05T21:04:13.872Z,13.90
2022-09-05T21:06:44.247Z,13.80
2022-09-05T21:09:53.002Z,13.80
2022-09-05T21:12:50.965Z,13.80
2022-09-05T21:15:53.193Z,13.80
2022-09-05T21:18:15.145Z,13.90
2022-09-05T21:20:59.334Z,13.80
2022-09-05T21:23:35.623Z,14.00
2022-09-05T21:26:21.913Z,14.00
2022-09-05T21:29:13.018Z,14.00
2022-09-05T21:32:10.782Z,14.10
2022-09-05T21:34:53.934Z,14.20
2022-09-05T21:37:27.068Z,14.20
2022-09-05T21:40:01.344Z,14.20
2022-09-05T21:47:32.977Z,14.20
2022-09-05T21:47:47.218Z,14.10
2022-09-05T21:48:17.082Z,14.20
2022-09-05T21:50:49.862Z,14.20
2022-09-05T21:59:13.635Z,14.10
2022-09-05T21:59:27.447Z,14.10
2022-09-05T21:59:36.442Z,14.10
2022-09-05T22:02:09.004Z,13.90
2022-09-05T22:04:45.851Z,14.00
2022-09-05T22:07:32.321Z,14.00
2022-09-05T22:10:06.225Z,14.00
2022-09-05T22:12:36.301Z,14.00
2022-09-05T22:15:28.106Z,14.00
2022-09-05T22:18:17.307Z,14.10
2022-09-05T22:21:32.017Z,14.00
2022-09-05T22:23:44.733Z,14.00
2022-09-05T22:26:16.615Z,14.00
2022-09-05T22:28:50.716Z,14.10
2022-09-05T22:31:22.921Z,14.00
2022-09-05T22:33:52.664Z,13.90
2022-09-05T22:36:26.471Z,13.80
2022-09-05T22:39:07.334Z,13.80
2022-09-05T22:41:37.489Z,13.80
2022-09-05T22:44:06.834Z,13.80
2022-09-05T22:46:35.713Z,13.80
2022-09-05T22:49:04.385Z,13.80
2022-09-05T22:51:32.081Z,13.80
2022-09-05T22:54:04.255Z,13.70
2022-09-05T22:56:35.365Z,13.70
2022-09-05T22:59:04.921Z,13.60
2022-09-05T23:01:36.285Z,13.80
2022-09-05T23:04:12.682Z,13.70
2022-09-05T23:06:40.396Z,13.70
2022-09-05T23:09:16.248Z,13.70
2022-09-05T23:11:46.964Z,13.60
2022-09-05T23:14:14.399Z,13.60
2022-09-05T23:16:44.572Z,13.50
2022-09-05T23:19:12.533Z,13.60
2022-09-05T23:22:03.549Z,13.50
2022-09-05T23:24:31.255Z,13.50
2022-09-05T23:26:58.619Z,13.40
2022-09-05T23:29:29.190Z,13.30
2022-09-05T23:31:57.090Z,13.30
2022-09-05T23:34:27.247Z,13.30
2022-09-05T23:36:58.112Z,13.20
2022-09-05T23:39:26.429Z,13.20
2022-09-05T23:41:57.330Z,13.20
2022-09-05T23:44:27.951Z,13.20
2022-09-05T23:46:55.024Z,13.20
2022-09-05T23:49:28.842Z,13.20
2022-09-05T23:51:56.241Z,13.20
2022-09-05T23:54:29.262Z,13.20
2022-09-05T23:56:57.768Z,13.20
2022-09-05T23:59:25.282Z,13.20
